Terminal Aerodrome Forecast
Issued by NWS Wilmington, NC

Current Version | Previous Version | Graphics & Text | Print | Product List | Glossary Off
Versions: 1 2 3 4 5 6 7 8 9 10 11 12 13 14 15 16 17 18

195
FTUS42 KILM 070552 CCA
TAFLBT
TAF COR
KLBT 070552Z 0706/0806 04010G15KT P6SM -RA SCT025 OVC040
     FM071100 02014G22KT 5SM -RA BR SCT010 OVC020
      TEMPO 0714/0718 2SM RA SCT007 OVC015
     FM071900 36018G28KT 4SM -RA BR SCT007 OVC015
     FM072300 34015G25KT P6SM SCT045 OVC100=

USA.gov is the U.S. government's official web portal to all federal, state and local government web resources and services.